createdAt,value
2023-02-11T00:02:28.146Z,55.20
2023-02-11T00:05:06.576Z,55.80
2023-02-11T00:07:42.773Z,55.20
2023-02-11T00:10:10.783Z,55.30
2023-02-11T00:12:40.786Z,55.20
2023-02-11T00:15:11.107Z,55.30
2023-02-11T00:17:41.676Z,55.20
2023-02-11T00:20:10.068Z,55.20
2023-02-11T00:25:31.898Z,55.20
2023-02-11T00:28:12.819Z,55.10
2023-02-11T00:31:22.130Z,55.10
2023-02-11T00:33:55.699Z,55.00
2023-02-11T00:36:49.314Z,54.90
2023-02-11T00:39:30.583Z,54.80
2023-02-11T00:42:21.239Z,54.80
2023-02-11T00:44:51.324Z,54.80
2023-02-11T00:47:21.152Z,54.80
2023-02-11T00:49:51.353Z,54.80
2023-02-11T00:52:20.189Z,54.80
2023-02-11T00:54:53.563Z,54.80
2023-02-11T00:57:21.255Z,54.90
2023-02-11T00:59:49.279Z,54.80
2023-02-11T01:02:28.918Z,54.80
2023-02-11T01:05:01.626Z,54.80
2023-02-11T01:07:39.266Z,54.90
2023-02-11T01:10:18.838Z,54.80
2023-02-11T01:12:51.946Z,54.90
2023-02-11T01:15:39.809Z,54.80
2023-02-11T01:18:21.275Z,55.00
2023-02-11T01:21:01.110Z,55.10
2023-02-11T01:23:44.187Z,55.00
2023-02-11T01:29:00.240Z,55.00
2023-02-11T01:31:33.783Z,55.00
2023-02-11T01:34:14.549Z,55.10
2023-02-11T01:36:57.543Z,55.10
2023-02-11T01:39:30.400Z,55.60
2023-02-11T01:42:37.036Z,55.10
2023-02-11T01:45:45.109Z,55.20
2023-02-11T01:48:21.784Z,55.10
2023-02-11T01:50:53.642Z,55.20
2023-02-11T01:53:42.570Z,55.20
2023-02-11T01:56:34.227Z,55.20
2023-02-11T01:59:12.033Z,55.30
2023-02-11T02:02:02.510Z,55.20
2023-02-11T02:04:48.798Z,55.20
2023-02-11T02:07:37.674Z,55.20
2023-02-11T02:10:18.617Z,55.20
2023-02-11T02:12:49.065Z,55.10
2023-02-11T02:15:34.981Z,55.10
2023-02-11T02:18:21.667Z,55.20
2023-02-11T02:21:16.622Z,55.20
2023-02-11T02:23:44.269Z,55.40
2023-02-11T02:26:48.920Z,55.40
2023-02-11T02:29:28.492Z,55.40
2023-02-11T02:32:39.478Z,55.30
2023-02-11T02:35:46.920Z,55.40
2023-02-11T02:38:26.266Z,55.40
2023-02-11T02:41:22.229Z,55.40
2023-02-11T02:43:53.744Z,55.40
2023-02-11T02:46:21.023Z,55.30
2023-02-11T02:48:58.256Z,55.20
2023-02-11T02:51:46.934Z,55.30
2023-02-11T02:54:36.045Z,55.20
2023-02-11T02:57:18.461Z,55.20
2023-02-11T02:59:54.387Z,55.20
2023-02-11T03:02:42.314Z,55.20
2023-02-11T03:05:38.137Z,55.20
2023-02-11T03:08:24.439Z,55.10
2023-02-11T03:10:56.197Z,55.00
2023-02-11T03:13:26.664Z,55.00
2023-02-11T03:15:57.614Z,55.10
2023-02-11T03:18:28.886Z,54.90
2023-02-11T03:20:57.774Z,54.90
2023-02-11T03:23:52.780Z,55.00
2023-02-11T03:26:34.637Z,55.10
2023-02-11T03:29:09.270Z,55.10
2023-02-11T03:32:08.230Z,55.00
2023-02-11T03:34:53.377Z,55.00
2023-02-11T03:37:35.189Z,55.00
2023-02-11T03:40:05.506Z,55.00
2023-02-11T03:42:39.983Z,55.00
2023-02-11T03:45:10.821Z,55.10
2023-02-11T03:47:41.650Z,55.10
2023-02-11T03:50:11.232Z,55.10
2023-02-11T03:52:39.195Z,55.10
2023-02-11T03:55:12.418Z,55.10
2023-02-11T03:57:39.799Z,55.20
2023-02-11T04:00:08.509Z,55.10
2023-02-11T04:02:39.984Z,55.10
2023-02-11T04:05:09.174Z,55.00
2023-02-11T04:07:36.791Z,55.00
2023-02-11T04:10:05.137Z,55.00
2023-02-11T04:12:34.902Z,54.90
2023-02-11T04:15:02.244Z,54.90
2023-02-11T04:17:29.547Z,54.90
2023-02-11T04:19:56.877Z,54.90
2023-02-11T04:22:24.218Z,54.70
2023-02-11T04:24:51.516Z,54.70
2023-02-11T04:27:18.840Z,54.70
2023-02-11T04:29:46.153Z,54.60
2023-02-11T04:32:13.535Z,54.70
2023-02-11T04:34:40.872Z,54.60
2023-02-11T04:37:08.534Z,54.50
2023-02-11T04:39:36.193Z,54.50
2023-02-11T04:42:03.577Z,54.50
2023-02-11T04:44:30.999Z,54.50
2023-02-11T04:46:58.328Z,54.60
2023-02-11T04:49:30.298Z,55.20
2023-02-11T04:51:57.602Z,54.70
2023-02-11T04:54:24.952Z,54.70
2023-02-11T04:56:52.239Z,54.90
2023-02-11T04:59:19.490Z,54.90
2023-02-11T05:02:08.579Z,54.80
2023-02-11T05:04:35.897Z,54.70
2023-02-11T05:07:05.374Z,54.70
2023-02-11T05:09:32.706Z,54.70
2023-02-11T05:11:59.994Z,54.60
2023-02-11T05:14:27.400Z,54.60
2023-02-11T05:16:57.176Z,55.20
2023-02-11T05:19:24.602Z,54.70
2023-02-11T05:22:02.550Z,54.70
2023-02-11T05:24:32.246Z,54.70
2023-02-11T05:27:00.177Z,54.70
2023-02-11T05:29:27.757Z,54.80
2023-02-11T05:32:01.760Z,54.80
2023-02-11T05:34:31.268Z,54.90
2023-02-11T05:36:58.594Z,54.90
2023-02-11T05:39:25.949Z,54.80
2023-02-11T05:41:53.229Z,54.90
2023-02-11T05:44:20.514Z,54.90
2023-02-11T05:46:49.180Z,55.00
2023-02-11T05:49:17.664Z,54.90
2023-02-11T05:51:44.878Z,55.00
2023-02-11T05:54:12.304Z,55.10
2023-02-11T05:56:39.660Z,55.00
2023-02-11T05:59:09.260Z,55.00
2023-02-11T06:01:39.110Z,54.90
2023-02-11T06:04:08.804Z,54.90
2023-02-11T06:06:36.284Z,55.00
2023-02-11T06:09:03.744Z,55.00
2023-02-11T06:11:31.080Z,55.00
2023-02-11T06:14:01.585Z,55.00
2023-02-11T06:16:29.084Z,55.00
2023-02-11T06:18:58.966Z,55.00
2023-02-11T06:21:42.493Z,54.90
2023-02-11T06:24:11.173Z,54.90
2023-02-11T06:26:38.478Z,54.80
2023-02-11T06:29:10.678Z,54.90
2023-02-11T06:31:39.401Z,54.90
2023-02-11T06:34:10.551Z,55.00
2023-02-11T06:36:40.933Z,55.00
2023-02-11T06:39:08.295Z,55.10
2023-02-11T06:41:35.645Z,55.10
2023-02-11T06:44:02.918Z,55.10
2023-02-11T06:46:31.454Z,55.20
2023-02-11T06:48:58.800Z,55.20
2023-02-11T06:51:26.228Z,55.20
2023-02-11T06:53:53.505Z,55.10
2023-02-11T06:56:22.699Z,55.20
2023-02-11T06:58:53.603Z,55.40
2023-02-11T07:01:21.621Z,55.50
2023-02-11T07:03:51.276Z,55.40
2023-02-11T07:06:24.779Z,55.40
2023-02-11T07:08:54.869Z,55.40
2023-02-11T07:11:27.374Z,55.30
2023-02-11T07:13:57.072Z,55.40
2023-02-11T07:16:27.247Z,55.60
2023-02-11T07:18:54.674Z,55.60
2023-02-11T07:21:24.816Z,55.60
2023-02-11T07:23:54.624Z,55.50
2023-02-11T07:26:26.333Z,55.30
2023-02-11T07:28:53.519Z,55.30
2023-02-11T07:31:29.262Z,55.40
2023-02-11T07:34:00.008Z,55.20
2023-02-11T07:36:28.955Z,55.10
2023-02-11T07:38:56.282Z,55.10
2023-02-11T07:41:24.967Z,55.00
2023-02-11T07:43:54.942Z,55.20
2023-02-11T07:46:26.890Z,55.20
2023-02-11T07:48:55.011Z,55.20
2023-02-11T07:51:27.888Z,55.30
2023-02-11T07:53:57.553Z,55.20
2023-02-11T07:56:25.387Z,55.30
2023-02-11T07:58:53.228Z,55.30
2023-02-11T08:01:28.285Z,55.20
2023-02-11T08:03:58.052Z,55.20
2023-02-11T08:06:28.541Z,55.20
2023-02-11T08:08:55.993Z,55.20
2023-02-11T08:11:26.277Z,55.30
2023-02-11T08:13:54.585Z,55.20
2023-02-11T08:16:33.762Z,55.20
2023-02-11T08:19:04.077Z,55.20
2023-02-11T08:21:31.438Z,55.20
2023-02-11T08:24:01.171Z,55.20
2023-02-11T08:26:31.957Z,55.20
2023-02-11T08:28:59.647Z,55.20
2023-02-11T08:31:33.617Z,55.10
2023-02-11T08:34:03.430Z,54.90
2023-02-11T08:36:34.200Z,54.90
2023-02-11T08:39:18.571Z,54.90
2023-02-11T08:41:54.278Z,54.60
2023-02-11T08:44:22.519Z,54.40
2023-02-11T08:46:51.512Z,54.30
2023-02-11T08:49:18.886Z,54.20
2023-02-11T08:51:46.874Z,54.50
2023-02-11T08:54:14.531Z,54.50
2023-02-11T08:56:42.171Z,54.50
2023-02-11T08:59:13.013Z,54.60
2023-02-11T09:01:44.187Z,54.70
2023-02-11T09:04:11.749Z,54.70
2023-02-11T09:06:39.504Z,54.70
2023-02-11T09:09:10.372Z,54.90
2023-02-11T09:11:38.023Z,54.90
2023-02-11T09:14:05.486Z,54.80
2023-02-11T09:16:37.069Z,54.80
2023-02-11T09:19:05.635Z,54.70
2023-02-11T09:21:33.228Z,54.60
2023-02-11T09:24:02.955Z,54.60
2023-02-11T09:26:36.680Z,54.60
2023-02-11T09:29:05.268Z,54.40
2023-02-11T09:31:34.623Z,54.30
2023-02-11T09:34:04.403Z,54.30
2023-02-11T09:36:34.707Z,54.30
2023-02-11T09:39:03.875Z,54.30
2023-02-11T09:41:39.238Z,54.20
2023-02-11T09:44:08.954Z,54.00
2023-02-11T09:46:42.678Z,54.10
2023-02-11T09:49:19.887Z,54.10
2023-02-11T09:51:54.920Z,54.20
2023-02-11T09:54:34.153Z,54.30
2023-02-11T09:57:01.501Z,54.50
2023-02-11T09:59:28.846Z,54.40
2023-02-11T10:02:17.121Z,54.30
2023-02-11T10:04:53.566Z,54.10
2023-02-11T10:07:42.932Z,54.30
2023-02-11T10:10:10.217Z,54.30
2023-02-11T10:12:52.613Z,54.10
2023-02-11T10:15:19.890Z,54.30
2023-02-11T10:17:47.287Z,54.20
2023-02-11T10:20:16.855Z,54.20
2023-02-11T10:23:02.607Z,54.20
2023-02-11T10:25:45.749Z,54.40
2023-02-11T10:28:20.414Z,54.30
2023-02-11T10:31:08.166Z,54.30
2023-02-11T10:33:54.386Z,54.20
2023-02-11T10:36:26.435Z,54.20
2023-02-11T10:38:53.680Z,54.10
2023-02-11T10:41:30.315Z,54.20
2023-02-11T10:44:01.337Z,54.60
2023-02-11T10:46:36.608Z,54.40
2023-02-11T10:49:04.020Z,54.30
2023-02-11T10:51:37.737Z,54.20
2023-02-11T10:54:05.197Z,54.20
2023-02-11T10:56:37.401Z,54.20
2023-02-11T10:59:28.596Z,54.40
2023-02-11T11:02:24.634Z,54.20
2023-02-11T11:04:57.613Z,54.20
2023-02-11T11:07:33.497Z,54.00
2023-02-11T11:10:06.215Z,54.00
2023-02-11T11:12:47.883Z,53.90
2023-02-11T11:15:18.691Z,54.00
2023-02-11T11:17:46.603Z,53.90
2023-02-11T11:20:29.797Z,53.80
2023-02-11T11:23:19.689Z,54.00
2023-02-11T11:26:02.389Z,54.00
2023-02-11T11:28:38.704Z,54.00
2023-02-11T11:31:13.348Z,54.10
2023-02-11T11:33:44.418Z,54.00
2023-02-11T11:36:16.533Z,54.30
2023-02-11T11:38:57.567Z,54.10
2023-02-11T11:41:26.347Z,54.20
2023-02-11T11:44:03.926Z,54.30
2023-02-11T11:46:41.341Z,54.20
2023-02-11T11:49:29.417Z,54.30
2023-02-11T11:52:13.965Z,54.40
2023-02-11T11:54:50.848Z,54.40
2023-02-11T11:57:27.156Z,54.30
2023-02-11T11:59:54.708Z,54.40
2023-02-11T12:02:34.286Z,54.50
2023-02-11T12:05:09.445Z,54.60
2023-02-11T12:07:51.599Z,54.50
2023-02-11T12:10:24.729Z,54.60
2023-02-11T12:13:08.179Z,54.40
2023-02-11T12:16:22.806Z,54.50
2023-02-11T12:19:00.227Z,54.60
2023-02-11T12:22:04.996Z,54.60
2023-02-11T12:25:00.289Z,54.60
2023-02-11T12:27:49.549Z,54.60
2023-02-11T12:30:21.749Z,54.70
2023-02-11T12:33:23.905Z,54.80
2023-02-11T12:36:21.660Z,54.50
2023-02-11T12:39:00.882Z,54.60
2023-02-11T12:41:54.846Z,54.40
2023-02-11T12:44:39.073Z,54.40
2023-02-11T12:47:31.964Z,54.50
2023-02-11T12:50:43.527Z,54.30
2023-02-11T12:53:28.871Z,54.20
2023-02-11T12:56:00.764Z,54.00
2023-02-11T12:58:44.072Z,54.00
2023-02-11T13:01:20.355Z,54.10
2023-02-11T13:04:08.517Z,53.60
2023-02-11T13:06:43.026Z,53.60
2023-02-11T13:09:19.012Z,53.60
2023-02-11T13:11:52.083Z,53.50
2023-02-11T13:14:25.843Z,53.80
2023-02-11T13:16:55.176Z,53.80
2023-02-11T13:19:22.462Z,53.60
2023-02-11T13:21:56.149Z,53.50
2023-02-11T13:24:39.408Z,53.60
2023-02-11T13:27:31.349Z,53.20
2023-02-11T13:30:14.299Z,53.10
2023-02-11T13:32:57.079Z,53.20
2023-02-11T13:35:34.374Z,53.00
2023-02-11T13:38:06.533Z,53.00
2023-02-11T13:40:37.052Z,53.00
2023-02-11T13:43:09.857Z,53.10
2023-02-11T13:45:40.095Z,53.10
2023-02-11T13:48:40.471Z,53.00
2023-02-11T13:51:14.247Z,53.10
2023-02-11T13:53:48.959Z,53.10
2023-02-11T13:56:36.466Z,53.00
2023-02-11T13:59:24.152Z,53.00
2023-02-11T14:02:20.224Z,53.00
2023-02-11T14:05:50.889Z,53.00
2023-02-11T14:08:40.109Z,53.10
2023-02-11T14:11:30.149Z,53.20
2023-02-11T14:14:21.931Z,53.30
2023-02-11T14:17:09.739Z,53.30
2023-02-11T14:19:38.047Z,53.20
2023-02-11T14:22:18.834Z,53.30
2023-02-11T14:24:51.278Z,53.30
2023-02-11T14:27:47.323Z,53.40
2023-02-11T14:30:17.823Z,53.30
2023-02-11T14:33:04.064Z,53.30
2023-02-11T14:35:34.345Z,53.20
2023-02-11T14:38:13.847Z,53.30
2023-02-11T14:41:20.558Z,53.30
2023-02-11T14:43:58.455Z,53.20
2023-02-11T14:46:27.881Z,53.30
2023-02-11T14:48:59.625Z,53.30
2023-02-11T14:51:41.004Z,53.40
2023-02-11T14:54:15.228Z,53.30
2023-02-11T14:56:42.879Z,53.40
2023-02-11T14:59:21.512Z,53.40
2023-02-11T15:01:56.721Z,53.40
2023-02-11T15:04:28.469Z,53.50
2023-02-11T15:06:59.475Z,53.60
2023-02-11T15:09:49.155Z,53.60
2023-02-11T15:12:27.310Z,53.70
2023-02-11T15:14:58.081Z,53.10
2023-02-11T15:17:31.922Z,53.10
2023-02-11T15:20:04.063Z,53.10
2023-02-11T15:22:37.448Z,53.20
2023-02-11T15:25:07.850Z,53.20
2023-02-11T15:27:49.715Z,53.10
2023-02-11T15:30:19.733Z,53.10
2023-02-11T15:32:47.213Z,53.20
2023-02-11T15:35:14.634Z,53.10
2023-02-11T15:37:42.020Z,53.00
2023-02-11T15:40:33.660Z,53.00
2023-02-11T15:43:05.878Z,53.10
2023-02-11T15:45:40.391Z,53.10
2023-02-11T15:48:13.278Z,53.40
2023-02-11T15:50:42.291Z,53.30
2023-02-11T15:53:31.072Z,53.30
2023-02-11T15:56:11.245Z,53.40
2023-02-11T15:58:44.432Z,53.50
2023-02-11T16:01:12.882Z,53.60
2023-02-11T16:03:42.633Z,53.60
2023-02-11T16:06:18.989Z,53.70
2023-02-11T16:09:00.100Z,54.40
2023-02-11T16:11:32.537Z,53.80
2023-02-11T16:14:01.679Z,53.80
2023-02-11T16:16:32.070Z,53.80
2023-02-11T16:19:07.039Z,53.70
2023-02-11T16:21:39.137Z,53.90
2023-02-11T16:24:21.406Z,54.00
2023-02-11T16:26:50.199Z,54.00
2023-02-11T16:29:29.272Z,54.00
2023-02-11T16:32:18.079Z,53.80
2023-02-11T16:34:45.823Z,53.80
2023-02-11T16:37:15.827Z,53.90
2023-02-11T16:39:45.617Z,53.90
2023-02-11T16:42:15.574Z,54.10
2023-02-11T16:44:42.943Z,54.20
2023-02-11T16:47:23.060Z,54.30
2023-02-11T16:49:52.869Z,54.40
2023-02-11T16:52:24.147Z,54.30
2023-02-11T16:54:51.561Z,54.40
2023-02-11T16:57:24.591Z,54.40
2023-02-11T16:59:52.682Z,54.50
2023-02-11T17:02:25.570Z,54.60
2023-02-11T17:04:54.591Z,54.60
2023-02-11T17:07:22.459Z,54.70
2023-02-11T17:09:49.820Z,54.80
2023-02-11T17:12:17.140Z,54.80
2023-02-11T17:14:44.781Z,54.90
2023-02-11T17:17:12.601Z,55.00
2023-02-11T17:19:40.077Z,55.10
2023-02-11T17:22:07.700Z,55.10
2023-02-11T17:24:34.979Z,55.10
2023-02-11T17:27:02.622Z,55.10
2023-02-11T17:29:29.998Z,55.10
2023-02-11T17:31:57.532Z,55.20
2023-02-11T17:34:29.235Z,55.20
2023-02-11T17:36:57.954Z,55.20
2023-02-11T17:39:25.935Z,55.20
2023-02-11T17:41:53.257Z,55.20
2023-02-11T17:44:20.560Z,55.30
2023-02-11T17:46:50.023Z,55.40
2023-02-11T17:49:17.617Z,55.50
2023-02-11T17:51:45.166Z,55.50
2023-02-11T17:54:18.556Z,55.60
2023-02-11T17:56:48.825Z,55.80
2023-02-11T17:59:20.163Z,55.90
2023-02-11T18:01:50.348Z,55.70
2023-02-11T18:04:19.428Z,55.80
2023-02-11T18:06:46.989Z,55.90
2023-02-11T18:09:14.335Z,56.00
2023-02-11T18:11:42.017Z,56.00
2023-02-11T18:14:10.994Z,56.10
2023-02-11T18:16:43.600Z,56.10
2023-02-11T18:19:11.913Z,56.20
2023-02-11T18:21:39.752Z,56.20
2023-02-11T18:24:07.436Z,56.30
2023-02-11T18:26:37.595Z,56.40
2023-02-11T18:29:10.136Z,56.40
2023-02-11T18:31:37.701Z,56.50
2023-02-11T18:34:07.630Z,56.50
2023-02-11T18:36:35.576Z,56.50
2023-02-11T18:39:04.942Z,56.50
2023-02-11T18:41:32.580Z,56.60
2023-02-11T18:44:02.828Z,56.40
2023-02-11T18:46:31.292Z,56.40
2023-02-11T18:48:58.656Z,56.40
2023-02-11T18:51:26.843Z,56.40
2023-02-11T18:53:56.455Z,56.30
2023-02-11T18:56:27.811Z,56.10
2023-02-11T18:58:57.780Z,55.70
2023-02-11T19:01:27.876Z,55.70
2023-02-11T19:03:57.493Z,55.60
2023-02-11T19:06:27.678Z,55.50
2023-02-11T19:09:00.259Z,55.40
2023-02-11T19:11:47.394Z,55.20
2023-02-11T19:14:17.146Z,55.10
2023-02-11T19:16:47.876Z,54.80
2023-02-11T19:19:15.221Z,54.50
2023-02-11T19:21:46.451Z,54.60
2023-02-11T19:24:16.165Z,54.60
2023-02-11T19:26:46.282Z,54.70
2023-02-11T19:29:13.771Z,54.50
2023-02-11T19:31:41.470Z,54.60
2023-02-11T19:34:11.262Z,54.60
2023-02-11T19:36:38.691Z,54.60
2023-02-11T19:39:09.220Z,54.70
2023-02-11T19:41:37.098Z,54.70
2023-02-11T19:44:05.882Z,54.70
2023-02-11T19:46:37.560Z,54.70
2023-02-11T19:49:05.473Z,54.60
2023-02-11T19:51:39.151Z,54.30
2023-02-11T19:54:08.757Z,54.40
2023-02-11T19:56:38.618Z,54.20
2023-02-11T19:59:08.951Z,54.10
2023-02-11T20:01:37.017Z,54.10
2023-02-11T20:04:04.650Z,54.20
2023-02-11T20:06:33.067Z,54.20
2023-02-11T20:09:03.233Z,54.30
2023-02-11T20:11:32.086Z,54.30
2023-02-11T20:13:59.639Z,54.30
2023-02-11T20:16:46.361Z,54.20
2023-02-11T20:19:18.133Z,54.30
2023-02-11T20:21:47.837Z,54.40
2023-02-11T20:24:18.013Z,54.50
2023-02-11T20:26:48.158Z,54.70
2023-02-11T20:29:18.839Z,54.70
2023-02-11T20:31:46.362Z,54.80
2023-02-11T20:34:13.855Z,54.90
2023-02-11T20:36:41.566Z,55.00
2023-02-11T20:39:17.215Z,55.00
2023-02-11T20:41:46.153Z,55.20
2023-02-11T20:44:21.772Z,55.30
2023-02-11T20:46:49.684Z,55.50
2023-02-11T20:49:23.929Z,55.50
2023-02-11T20:51:54.488Z,55.60
2023-02-11T20:54:23.428Z,55.70
2023-02-11T20:56:51.806Z,55.70
2023-02-11T20:59:20.952Z,55.80
2023-02-11T21:01:50.569Z,55.90
2023-02-11T21:04:20.503Z,55.90
2023-02-11T21:06:50.171Z,56.00
2023-02-11T21:09:20.758Z,56.10
2023-02-11T21:11:49.443Z,56.30
2023-02-11T21:14:18.382Z,56.40
2023-02-11T21:16:46.858Z,56.40
2023-02-11T21:19:17.100Z,56.60
2023-02-11T21:21:44.674Z,56.70
2023-02-11T21:24:12.175Z,56.70
2023-02-11T21:26:44.592Z,56.80
2023-02-11T21:29:12.087Z,57.00
2023-02-11T21:31:42.062Z,57.00
2023-02-11T21:34:10.346Z,57.00
2023-02-11T21:36:37.628Z,57.10
2023-02-11T21:39:05.944Z,57.20
2023-02-11T21:41:33.426Z,57.20
2023-02-11T21:44:03.446Z,57.20
2023-02-11T21:46:31.903Z,57.30
2023-02-11T21:49:01.591Z,57.40
2023-02-11T21:51:31.489Z,57.50
2023-02-11T21:54:01.374Z,57.50
2023-02-11T21:56:31.235Z,57.60
2023-02-11T21:59:02.087Z,57.60
2023-02-11T22:01:32.071Z,57.60
2023-02-11T22:04:01.742Z,57.70
2023-02-11T22:06:31.382Z,57.60
2023-02-11T22:09:01.769Z,57.70
2023-02-11T22:11:29.095Z,57.70
2023-02-11T22:13:59.223Z,57.80
2023-02-11T22:16:28.025Z,57.80
2023-02-11T22:18:58.639Z,57.80
2023-02-11T22:21:28.786Z,57.90
2023-02-11T22:23:58.622Z,57.80
2023-02-11T22:26:30.200Z,57.90
2023-02-11T22:28:57.886Z,57.90
2023-02-11T22:31:30.221Z,57.90
2023-02-11T22:33:58.407Z,57.90
2023-02-11T22:36:35.176Z,57.90
2023-02-11T22:39:05.397Z,58.10
2023-02-11T22:41:32.983Z,58.70
2023-02-11T22:44:00.545Z,58.10
2023-02-11T22:46:32.748Z,58.20
2023-02-11T22:49:00.212Z,58.20
2023-02-11T22:51:29.124Z,58.20
2023-02-11T22:54:04.120Z,58.30
2023-02-11T22:56:37.253Z,58.40
2023-02-11T22:59:08.429Z,58.40
2023-02-11T23:01:38.289Z,58.40
2023-02-11T23:04:08.188Z,58.30
2023-02-11T23:06:35.546Z,58.40
2023-02-11T23:09:07.685Z,58.40
2023-02-11T23:11:37.411Z,58.50
2023-02-11T23:14:05.360Z,58.50
2023-02-11T23:16:34.534Z,58.50
2023-02-11T23:19:05.723Z,58.60
2023-02-11T23:21:37.762Z,58.70
2023-02-11T23:24:08.763Z,58.70
2023-02-11T23:26:40.047Z,58.80
2023-02-11T23:29:08.128Z,58.90
2023-02-11T23:31:39.756Z,59.00
2023-02-11T23:34:07.570Z,59.20
2023-02-11T23:36:35.108Z,59.00
2023-02-11T23:39:05.919Z,59.40
2023-02-11T23:41:33.212Z,59.60
2023-02-11T23:44:03.024Z,59.80
2023-02-11T23:46:32.785Z,60.00
2023-02-11T23:49:00.272Z,60.30
2023-02-11T23:51:30.307Z,60.40
2023-02-11T23:53:57.581Z,60.50
2023-02-11T23:56:28.322Z,60.60
2023-02-11T23:58:58.111Z,60.80
